createdAt,value
2017-08-25T00:03:10.574Z,17.40
2017-08-25T00:07:57.216Z,17.50
2017-08-25T00:12:43.842Z,17.40
2017-08-25T00:17:30.533Z,17.40
2017-08-25T00:22:17.550Z,17.30
2017-08-25T00:27:04.207Z,17.40
2017-08-25T00:31:50.915Z,17.30
2017-08-25T00:36:37.601Z,17.30
2017-08-25T00:41:24.647Z,17.30
2017-08-25T00:46:11.344Z,17.40
2017-08-25T00:50:58.059Z,17.30
2017-08-25T00:55:44.738Z,17.20
2017-08-25T01:00:31.495Z,17.00
2017-08-25T01:05:18.219Z,16.80
2017-08-25T01:10:05.279Z,16.90
2017-08-25T01:14:51.914Z,16.80
2017-08-25T01:19:38.563Z,16.80
2017-08-25T01:24:25.206Z,16.60
2017-08-25T01:29:11.871Z,16.60
2017-08-25T01:33:58.780Z,16.50
2017-08-25T01:38:45.401Z,16.40
2017-08-25T01:43:32.050Z,16.20
2017-08-25T01:48:19.456Z,16.10
2017-08-25T01:53:06.510Z,16.10
2017-08-25T01:57:53.292Z,16.00
2017-08-25T02:02:40.170Z,15.90
2017-08-25T02:07:26.806Z,15.80
2017-08-25T02:12:13.444Z,15.80
2017-08-25T02:17:00.101Z,15.80
2017-08-25T02:21:53.770Z,15.60
2017-08-25T02:26:40.443Z,15.60
2017-08-25T02:31:27.372Z,15.50
2017-08-25T02:36:14.000Z,15.50
2017-08-25T02:41:00.638Z,15.60
2017-08-25T02:45:47.321Z,15.40
2017-08-25T02:50:34.348Z,15.40
2017-08-25T02:55:20.975Z,15.40
2017-08-25T03:00:07.753Z,15.20
2017-08-25T03:04:54.547Z,15.20
2017-08-25T03:09:41.314Z,15.30
2017-08-25T03:14:28.389Z,15.30
2017-08-25T03:19:15.310Z,15.20
2017-08-25T03:24:01.914Z,15.10
2017-08-25T03:28:48.539Z,14.80
2017-08-25T03:33:35.218Z,14.80
2017-08-25T03:38:21.870Z,14.90
2017-08-25T03:43:08.804Z,15.00
2017-08-25T03:47:55.483Z,15.10
2017-08-25T03:52:42.150Z,14.80
2017-08-25T03:57:28.808Z,14.70
2017-08-25T04:02:15.444Z,14.70
2017-08-25T04:07:02.196Z,14.60
2017-08-25T04:11:48.828Z,14.70
2017-08-25T04:16:35.788Z,14.60
2017-08-25T04:21:22.405Z,14.60
2017-08-25T04:26:09.073Z,14.70
2017-08-25T04:30:55.689Z,14.70
2017-08-25T04:35:42.336Z,14.60
2017-08-25T04:40:29.027Z,14.70
2017-08-25T04:45:15.695Z,14.80
2017-08-25T04:50:02.396Z,14.80
2017-08-25T04:54:49.036Z,14.70
2017-08-25T04:59:35.855Z,14.40
2017-08-25T05:04:22.582Z,14.50
2017-08-25T05:09:09.359Z,14.50
2017-08-25T05:13:56.084Z,14.70
2017-08-25T05:18:42.769Z,14.80
2017-08-25T05:23:29.415Z,15.00
2017-08-25T05:28:16.353Z,15.00
2017-08-25T05:33:03.174Z,14.90
2017-08-25T05:37:49.807Z,15.00
2017-08-25T05:42:36.454Z,15.30
2017-08-25T05:47:23.092Z,15.40
2017-08-25T05:52:09.721Z,15.50
2017-08-25T05:56:56.393Z,15.50
2017-08-25T06:01:43.519Z,15.70
2017-08-25T06:06:30.145Z,15.80
2017-08-25T06:11:16.806Z,15.80
2017-08-25T06:16:03.413Z,16.10
2017-08-25T06:20:50.067Z,16.30
2017-08-25T06:25:36.713Z,16.50
2017-08-25T06:30:23.738Z,16.70
2017-08-25T06:35:10.363Z,16.90
2017-08-25T06:39:57.065Z,17.20
2017-08-25T06:44:43.833Z,17.50
2017-08-25T06:49:30.637Z,17.80
2017-08-25T06:54:17.269Z,18.00
2017-08-25T06:59:03.932Z,18.20
2017-08-25T07:03:50.925Z,18.40
2017-08-25T07:08:37.609Z,18.80
2017-08-25T07:13:24.303Z,19.10
2017-08-25T07:18:11.012Z,19.20
2017-08-25T07:22:57.702Z,19.50
2017-08-25T07:27:44.325Z,19.70
2017-08-25T07:32:30.994Z,20.00
2017-08-25T07:37:17.849Z,20.00
2017-08-25T07:42:04.481Z,20.20
2017-08-25T07:46:51.153Z,20.50
2017-08-25T07:51:37.773Z,20.80
2017-08-25T07:56:24.524Z,20.90
2017-08-25T08:01:11.192Z,21.10
2017-08-25T08:05:58.619Z,21.40
2017-08-25T08:10:45.302Z,21.60
2017-08-25T08:15:32.022Z,21.80
2017-08-25T08:20:18.742Z,21.90
2017-08-25T08:25:05.471Z,22.50
2017-08-25T08:29:52.166Z,22.90
2017-08-25T08:34:38.818Z,23.20
2017-08-25T08:39:25.614Z,23.60
2017-08-25T08:44:12.629Z,23.50
2017-08-25T08:48:59.344Z,24.10
2017-08-25T08:53:46.005Z,24.50
2017-08-25T08:58:32.636Z,25.10
2017-08-25T09:03:19.276Z,25.60
2017-08-25T09:08:06.205Z,25.90
2017-08-25T09:12:52.886Z,26.00
2017-08-25T09:17:39.572Z,26.20
2017-08-25T09:22:26.425Z,26.40
2017-08-25T09:27:13.077Z,26.30
2017-08-25T09:31:59.748Z,26.50
2017-08-25T09:36:46.381Z,27.20
2017-08-25T09:41:33.360Z,27.10
2017-08-25T09:46:20.016Z,27.60
2017-08-25T09:51:06.723Z,27.10
2017-08-25T09:55:53.611Z,26.90
2017-08-25T10:00:40.289Z,27.90
2017-08-25T10:05:27.037Z,29.00
2017-08-25T10:10:13.772Z,29.00
2017-08-25T10:15:00.439Z,29.30
2017-08-25T10:19:47.306Z,29.70
2017-08-25T10:24:34.109Z,29.50
2017-08-25T10:29:20.776Z,30.20
2017-08-25T10:39:54.860Z,30.10
2017-08-25T10:44:47.379Z,30.20
2017-08-25T10:49:34.132Z,30.60
2017-08-25T10:54:21.177Z,30.80
2017-08-25T10:59:07.847Z,31.70
2017-08-25T11:03:54.530Z,31.30
2017-08-25T11:08:41.297Z,31.30
2017-08-25T11:13:28.012Z,31.00
2017-08-25T11:18:14.759Z,31.20
2017-08-25T11:23:01.500Z,31.40
2017-08-25T11:27:48.534Z,31.10
2017-08-25T11:32:35.206Z,31.10
2017-08-25T11:37:21.891Z,31.30
2017-08-25T11:42:08.607Z,31.70
2017-08-25T11:46:55.347Z,31.60
2017-08-25T11:51:41.993Z,31.90
2017-08-25T11:56:28.962Z,30.60
2017-08-25T12:01:15.668Z,30.90
2017-08-25T12:06:02.335Z,31.20
2017-08-25T12:10:48.976Z,31.10
2017-08-25T12:15:35.689Z,31.40
2017-08-25T12:20:22.403Z,31.30
2017-08-25T12:25:09.994Z,31.00
2017-08-25T12:29:56.630Z,31.00
2017-08-25T12:34:43.571Z,31.10
2017-08-25T12:39:30.265Z,30.70
2017-08-25T12:44:17.095Z,31.60
2017-08-25T12:49:03.738Z,31.90
2017-08-25T12:53:50.372Z,31.80
2017-08-25T12:58:37.367Z,31.30
2017-08-25T13:03:24.017Z,30.60
2017-08-25T13:08:10.667Z,29.80
2017-08-25T13:12:57.288Z,29.20
2017-08-25T13:17:43.933Z,29.00
2017-08-25T13:22:30.571Z,29.30
2017-08-25T13:27:17.309Z,28.70
2017-08-25T13:32:04.113Z,28.60
2017-08-25T13:36:51.071Z,29.00
2017-08-25T13:41:37.724Z,28.90
2017-08-25T13:46:24.392Z,29.00
2017-08-25T13:51:11.321Z,28.50
2017-08-25T13:55:57.976Z,28.60
2017-08-25T14:00:44.803Z,28.80
2017-08-25T14:05:31.428Z,28.70
2017-08-25T14:10:18.417Z,28.70
2017-08-25T14:15:05.095Z,28.70
2017-08-25T14:19:51.721Z,28.70
2017-08-25T14:24:38.357Z,28.60
2017-08-25T14:29:25.005Z,28.60
2017-08-25T14:34:12.017Z,28.60
2017-08-25T14:38:59.151Z,28.50
2017-08-25T14:43:45.908Z,28.40
2017-08-25T14:48:32.608Z,28.30
2017-08-25T14:53:19.252Z,28.30
2017-08-25T14:58:05.889Z,28.30
2017-08-25T15:02:52.565Z,28.40
2017-08-25T15:07:39.599Z,28.40
2017-08-25T15:12:26.194Z,28.50
2017-08-25T15:17:12.826Z,28.40
2017-08-25T15:21:59.457Z,28.30
2017-08-25T15:26:46.094Z,28.30
2017-08-25T15:31:32.758Z,28.20
2017-08-25T15:36:19.437Z,28.10
2017-08-25T15:41:06.058Z,28.00
2017-08-25T15:45:52.701Z,28.10
2017-08-25T15:50:39.368Z,27.90
2017-08-25T15:55:26.028Z,27.90
2017-08-25T16:00:12.661Z,27.90
2017-08-25T16:04:59.274Z,27.90
2017-08-25T16:09:45.951Z,28.00
2017-08-25T16:14:32.921Z,28.00
2017-08-25T16:19:19.524Z,27.80
2017-08-25T16:24:06.145Z,27.60
2017-08-25T16:28:52.834Z,27.60
2017-08-25T16:33:39.463Z,27.50
2017-08-25T16:38:26.111Z,27.30
2017-08-25T16:43:12.807Z,27.20
2017-08-25T16:47:59.416Z,27.00
2017-08-25T16:52:46.296Z,26.90
2017-08-25T16:57:32.923Z,26.80
2017-08-25T17:02:19.535Z,26.70
2017-08-25T17:07:06.218Z,26.50
2017-08-25T17:11:52.872Z,26.40
2017-08-25T17:16:39.537Z,26.30
2017-08-25T17:21:26.586Z,26.10
2017-08-25T17:26:13.353Z,25.90
2017-08-25T17:31:00.161Z,25.80
2017-08-25T17:35:46.903Z,25.60
2017-08-25T17:40:33.682Z,25.50
2017-08-25T17:45:20.769Z,25.30
2017-08-25T17:50:07.433Z,25.10
2017-08-25T17:54:54.135Z,24.90
2017-08-25T17:59:40.921Z,24.80
2017-08-25T18:04:27.566Z,24.60
2017-08-25T18:09:14.220Z,24.30
2017-08-25T18:14:00.838Z,23.90
2017-08-25T18:18:48.637Z,23.80
2017-08-25T18:23:35.407Z,23.50
2017-08-25T18:28:22.167Z,23.30
2017-08-25T18:33:08.820Z,23.10
2017-08-25T18:37:55.562Z,23.00
2017-08-25T18:42:42.231Z,22.80
2017-08-25T18:47:28.865Z,22.70
2017-08-25T18:52:15.505Z,22.50
2017-08-25T18:57:02.124Z,22.30
2017-08-25T19:01:48.783Z,22.10
2017-08-25T19:06:35.457Z,22.00
2017-08-25T19:11:22.130Z,21.90
2017-08-25T19:16:08.837Z,21.70
2017-08-25T19:20:55.778Z,21.80
2017-08-25T19:25:42.430Z,21.80
2017-08-25T19:30:29.177Z,21.50
2017-08-25T19:35:15.875Z,21.40
2017-08-25T19:40:02.614Z,21.20
2017-08-25T19:44:49.381Z,21.10
2017-08-25T19:49:36.328Z,21.00
2017-08-25T19:54:23.003Z,20.90
2017-08-25T19:59:09.710Z,20.70
2017-08-25T20:03:56.495Z,20.70
2017-08-25T20:08:43.170Z,20.60
2017-08-25T20:13:30.047Z,20.60
2017-08-25T20:18:16.703Z,20.50
2017-08-25T20:23:03.393Z,20.50
2017-08-25T20:27:51.115Z,20.40
2017-08-25T20:32:37.778Z,20.30
2017-08-25T20:37:24.446Z,20.10
2017-08-25T20:42:11.178Z,19.90
2017-08-25T20:46:57.945Z,19.80
2017-08-25T20:51:44.636Z,19.70
2017-08-25T20:56:31.378Z,19.60
2017-08-25T21:01:18.458Z,19.60
2017-08-25T21:06:05.431Z,19.70
2017-08-25T21:10:52.110Z,19.70
2017-08-25T21:15:38.761Z,19.70
2017-08-25T21:20:25.421Z,19.60
2017-08-25T21:25:12.121Z,19.60
2017-08-25T21:29:58.816Z,19.70
2017-08-25T21:34:45.859Z,19.80
2017-08-25T21:39:32.488Z,19.90
2017-08-25T21:44:19.187Z,19.90
2017-08-25T21:49:05.874Z,20.00
2017-08-25T21:53:52.542Z,20.10
2017-08-25T21:58:39.223Z,20.20
2017-08-25T22:03:25.890Z,20.20
2017-08-25T22:08:12.898Z,20.20
2017-08-25T22:12:59.658Z,20.20
2017-08-25T22:17:46.375Z,20.30
2017-08-25T22:22:33.059Z,20.40
2017-08-25T22:27:19.752Z,20.30
2017-08-25T22:32:06.404Z,20.20
2017-08-25T22:36:53.440Z,20.20
2017-08-25T22:41:40.243Z,20.30
2017-08-25T22:46:26.918Z,20.20
2017-08-25T22:51:13.630Z,20.00
2017-08-25T22:56:00.270Z,20.00
2017-08-25T23:00:46.907Z,19.90
2017-08-25T23:05:33.556Z,19.80
2017-08-25T23:10:20.259Z,19.70
2017-08-25T23:15:06.934Z,19.60
2017-08-25T23:19:53.602Z,19.50
2017-08-25T23:24:40.258Z,19.40
2017-08-25T23:29:26.938Z,19.40
2017-08-25T23:34:13.904Z,19.30
2017-08-25T23:39:00.554Z,19.30
2017-08-25T23:43:47.261Z,19.30
2017-08-25T23:48:33.936Z,19.20
2017-08-25T23:53:20.569Z,19.10
2017-08-25T23:58:07.215Z,19.00
